createdAt,value
2018-12-18T00:02:11.905Z,54.47
2018-12-18T00:04:39.852Z,59.83
2018-12-18T00:07:07.883Z,63.97
2018-12-18T00:09:35.384Z,53.87
2018-12-18T00:12:03.237Z,61.23
2018-12-18T00:14:30.736Z,64.83
2018-12-18T00:16:58.324Z,58.90
2018-12-18T00:19:25.950Z,59.57
2018-12-18T00:21:53.456Z,54.17
2018-12-18T00:24:20.963Z,64.07
2018-12-18T00:26:48.624Z,56.57
2018-12-18T00:29:16.128Z,69.53
2018-12-18T00:31:44.121Z,80.10
2018-12-18T00:34:11.643Z,56.30
2018-12-18T00:36:39.408Z,53.67
2018-12-18T00:39:09.083Z,64.13
2018-12-18T00:41:36.589Z,59.37
2018-12-18T00:44:04.108Z,56.93
2018-12-18T00:46:31.885Z,51.83
2018-12-18T00:48:59.389Z,61.73
2018-12-18T00:51:27.016Z,60.73
2018-12-18T00:53:54.558Z,55.80
2018-12-18T00:56:25.633Z,58.47
2018-12-18T00:58:53.348Z,56.37
2018-12-18T01:01:21.197Z,49.93
2018-12-18T01:03:52.787Z,54.70
2018-12-18T01:06:18.508Z,61.13
2018-12-18T01:08:46.010Z,63.07
2018-12-18T01:11:13.508Z,73.50
2018-12-18T01:13:41.000Z,66.40
2018-12-18T01:16:08.744Z,57.13
2018-12-18T01:18:36.371Z,59.27
2018-12-18T01:21:03.921Z,57.27
2018-12-18T01:23:31.421Z,69.57
2018-12-18T01:25:58.920Z,55.93
2018-12-18T01:28:26.436Z,58.83
2018-12-18T01:30:54.156Z,77.60
2018-12-18T01:33:21.800Z,54.97
2018-12-18T01:35:49.659Z,78.23
2018-12-18T01:38:17.149Z,61.20
2018-12-18T01:40:44.702Z,74.17
2018-12-18T01:43:12.236Z,54.07
2018-12-18T01:45:39.793Z,49.07
2018-12-18T01:48:07.356Z,45.67
2018-12-18T01:50:35.042Z,49.47
2018-12-18T01:53:02.556Z,65.53
2018-12-18T01:55:30.056Z,74.13
2018-12-18T01:57:57.765Z,60.20
2018-12-18T02:00:25.337Z,58.83
2018-12-18T02:02:52.836Z,65.93
2018-12-18T02:05:20.609Z,57.13
2018-12-18T02:07:48.566Z,59.17
2018-12-18T02:10:16.060Z,49.03
2018-12-18T02:12:43.784Z,47.53
2018-12-18T02:15:11.300Z,44.77
2018-12-18T02:17:38.796Z,46.40
2018-12-18T02:20:06.896Z,66.07
2018-12-18T02:22:34.405Z,46.23
2018-12-18T02:25:01.945Z,49.20
2018-12-18T02:27:29.651Z,56.63
2018-12-18T02:29:57.162Z,50.03
2018-12-18T02:32:25.115Z,48.30
2018-12-18T02:34:52.977Z,51.83
2018-12-18T02:37:20.480Z,69.17
2018-12-18T02:39:48.029Z,51.60
2018-12-18T02:42:15.576Z,51.73
2018-12-18T02:44:43.074Z,46.73
2018-12-18T02:47:10.585Z,63.03
2018-12-18T02:49:38.660Z,55.57
2018-12-18T02:52:06.157Z,45.40
2018-12-18T02:54:33.673Z,49.70
2018-12-18T02:57:01.380Z,47.00
2018-12-18T02:59:28.899Z,69.67
2018-12-18T03:01:56.401Z,51.07
2018-12-18T03:04:24.282Z,45.90
2018-12-18T03:06:52.413Z,45.93
2018-12-18T03:09:19.908Z,49.90
2018-12-18T03:11:47.421Z,46.03
2018-12-18T03:14:15.272Z,52.57
2018-12-18T03:16:42.772Z,45.67
2018-12-18T03:19:11.413Z,47.20
2018-12-18T03:21:39.668Z,44.57
2018-12-18T03:24:07.456Z,44.50
2018-12-18T03:26:35.204Z,54.23
2018-12-18T03:29:02.718Z,45.53
2018-12-18T03:31:30.462Z,44.77
2018-12-18T03:33:58.356Z,49.30
2018-12-18T03:36:26.116Z,53.60
2018-12-18T03:38:53.707Z,54.30
2018-12-18T03:41:21.213Z,60.10
2018-12-18T03:43:48.988Z,51.70
2018-12-18T03:46:16.556Z,45.93
2018-12-18T03:48:44.352Z,49.93
2018-12-18T03:51:11.933Z,45.60
2018-12-18T03:53:39.442Z,46.83
2018-12-18T03:56:07.280Z,49.47
2018-12-18T03:58:34.793Z,46.80
2018-12-18T04:01:02.294Z,43.47
2018-12-18T04:03:30.087Z,44.73
2018-12-18T04:05:57.839Z,49.47
2018-12-18T04:08:25.345Z,45.63
2018-12-18T04:10:52.942Z,47.90
2018-12-18T04:13:20.927Z,43.80
2018-12-18T04:15:48.447Z,43.63
2018-12-18T04:18:15.941Z,44.97
2018-12-18T04:20:43.828Z,42.43
2018-12-18T04:23:11.346Z,55.40
2018-12-18T04:25:38.846Z,45.10
2018-12-18T04:28:06.413Z,51.97
2018-12-18T04:30:34.060Z,61.10
2018-12-18T04:33:02.208Z,46.90
2018-12-18T04:35:36.293Z,44.47
2018-12-18T04:38:03.983Z,58.93
2018-12-18T04:40:31.579Z,43.77
2018-12-18T04:42:59.072Z,56.90
2018-12-18T04:45:26.574Z,52.33
2018-12-18T04:47:54.401Z,52.23
2018-12-18T04:50:22.198Z,48.80
2018-12-18T04:52:49.730Z,44.00
2018-12-18T04:55:17.319Z,42.80
2018-12-18T04:57:45.233Z,43.43
2018-12-18T05:00:12.771Z,41.90
2018-12-18T05:02:40.284Z,40.43
2018-12-18T05:05:08.161Z,41.10
2018-12-18T05:07:35.929Z,49.77
2018-12-18T05:10:04.479Z,43.00
2018-12-18T05:12:32.082Z,43.70
2018-12-18T05:14:59.834Z,51.87
2018-12-18T05:17:27.342Z,46.20
2018-12-18T05:19:54.963Z,39.60
2018-12-18T05:22:22.498Z,40.97
2018-12-18T05:24:49.996Z,38.97
2018-12-18T05:27:17.617Z,42.53
2018-12-18T05:29:45.175Z,45.67
2018-12-18T05:32:13.061Z,51.93
2018-12-18T05:34:41.054Z,45.63
2018-12-18T05:37:08.554Z,54.07
2018-12-18T05:39:36.063Z,39.70
2018-12-18T05:42:04.621Z,50.80
2018-12-18T05:44:32.584Z,60.77
2018-12-18T05:47:00.099Z,46.47
2018-12-18T05:49:27.924Z,39.60
2018-12-18T05:51:55.424Z,43.03
2018-12-18T05:54:22.921Z,43.43
2018-12-18T05:56:50.660Z,46.30
2018-12-18T05:59:18.214Z,44.80
2018-12-18T06:01:45.705Z,44.80
2018-12-18T06:04:14.240Z,53.17
2018-12-18T06:06:41.958Z,43.73
2018-12-18T06:09:09.408Z,42.47
2018-12-18T06:11:36.857Z,46.17
2018-12-18T06:14:04.303Z,51.47
2018-12-18T06:16:31.750Z,48.07
2018-12-18T06:18:59.362Z,50.70
2018-12-18T06:21:26.907Z,52.73
2018-12-18T06:23:54.333Z,50.70
2018-12-18T06:26:21.805Z,49.07
2018-12-18T06:28:49.255Z,58.93
2018-12-18T06:31:16.732Z,43.90
2018-12-18T06:33:44.711Z,46.43
2018-12-18T06:36:12.454Z,50.60
2018-12-18T06:38:40.096Z,53.17
2018-12-18T06:41:07.605Z,46.60
2018-12-18T06:43:35.029Z,47.03
2018-12-18T06:46:02.749Z,50.00
2018-12-18T06:48:30.208Z,44.93
2018-12-18T06:50:57.839Z,52.33
2018-12-18T06:53:25.705Z,45.07
2018-12-18T06:55:53.162Z,60.97
2018-12-18T06:58:20.617Z,46.23
2018-12-18T07:00:48.123Z,51.03
2018-12-18T07:03:15.577Z,46.37
2018-12-18T07:05:43.613Z,47.17
2018-12-18T07:08:11.329Z,49.73
2018-12-18T07:10:38.791Z,49.37
2018-12-18T07:13:06.223Z,49.87
2018-12-18T07:15:33.890Z,50.33
2018-12-18T07:18:01.321Z,49.67
2018-12-18T07:20:28.882Z,49.23
2018-12-18T07:22:56.367Z,72.17
2018-12-18T07:25:23.813Z,61.30
2018-12-18T07:27:51.314Z,48.97
2018-12-18T07:30:18.795Z,56.87
2018-12-18T07:32:46.557Z,49.70
2018-12-18T07:35:14.670Z,45.90
2018-12-18T07:37:42.164Z,44.80
2018-12-18T07:40:09.677Z,51.93
2018-12-18T07:42:37.149Z,49.33
2018-12-18T07:45:04.991Z,46.93
2018-12-18T07:47:32.601Z,48.80
2018-12-18T07:50:00.214Z,44.57
2018-12-18T07:52:27.662Z,44.97
2018-12-18T07:54:55.111Z,50.40
2018-12-18T07:57:22.794Z,59.07
2018-12-18T07:59:50.413Z,51.33
2018-12-18T08:02:18.174Z,52.87
2018-12-18T08:04:46.191Z,48.93
2018-12-18T08:07:13.856Z,62.17
2018-12-18T08:09:41.308Z,52.57
2018-12-18T08:12:08.785Z,56.33
2018-12-18T08:14:36.937Z,51.90
2018-12-18T08:17:04.403Z,71.83
2018-12-18T08:19:32.301Z,41.10
2018-12-18T08:21:59.738Z,43.13
2018-12-18T08:24:27.173Z,59.20
2018-12-18T08:26:54.668Z,44.83
2018-12-18T08:29:22.106Z,51.97
2018-12-18T08:31:49.948Z,43.37
2018-12-18T08:34:17.393Z,41.00
2018-12-18T08:36:45.400Z,42.10
2018-12-18T08:39:13.177Z,48.43
2018-12-18T08:41:40.657Z,42.53
2018-12-18T08:44:08.153Z,44.43
2018-12-18T08:46:35.629Z,46.07
2018-12-18T08:49:03.373Z,64.10
2018-12-18T08:51:31.235Z,74.90
2018-12-18T08:53:58.773Z,48.83
2018-12-18T08:56:27.433Z,50.30
2018-12-18T08:58:54.913Z,53.17
2018-12-18T09:01:22.369Z,56.23
2018-12-18T09:03:50.074Z,48.57
2018-12-18T09:06:17.841Z,53.13
2018-12-18T09:08:45.344Z,54.10
2018-12-18T09:11:13.067Z,54.53
2018-12-18T09:13:40.512Z,60.97
2018-12-18T09:19:08.811Z,60.33
2018-12-18T09:21:36.338Z,61.60
2018-12-18T09:24:03.820Z,58.67
2018-12-18T09:26:31.567Z,51.53
2018-12-18T09:28:59.109Z,51.33
2018-12-18T09:31:26.557Z,49.30
2018-12-18T09:33:54.472Z,46.67
2018-12-18T09:36:22.550Z,49.27
2018-12-18T09:42:01.585Z,44.70
2018-12-18T09:44:29.353Z,43.17
2018-12-18T09:46:56.865Z,41.73
2018-12-18T09:49:24.369Z,42.00
2018-12-18T09:51:52.097Z,50.00
2018-12-18T09:54:19.553Z,41.33
2018-12-18T09:56:49.894Z,45.97
2018-12-18T09:59:17.401Z,55.93
2018-12-18T10:01:44.918Z,47.33
2018-12-18T10:04:12.576Z,43.57
2018-12-18T10:06:40.329Z,49.87
2018-12-18T10:09:09.806Z,43.77
2018-12-18T10:11:37.343Z,40.63
2018-12-18T10:14:04.951Z,48.07
2018-12-18T10:16:32.918Z,42.60
2018-12-18T10:19:01.073Z,43.30
2018-12-18T10:21:28.567Z,44.57
2018-12-18T10:23:56.020Z,56.87
2018-12-18T10:26:23.912Z,56.77
2018-12-18T10:28:51.353Z,46.73
2018-12-18T10:31:18.794Z,63.73
2018-12-18T10:33:46.717Z,51.90
2018-12-18T10:36:14.434Z,52.63
2018-12-18T10:38:41.871Z,47.80
2018-12-18T10:41:09.425Z,49.93
2018-12-18T10:43:36.874Z,44.73
2018-12-18T10:46:04.417Z,48.37
2018-12-18T10:48:31.903Z,51.03
2018-12-18T10:51:00.140Z,48.60
2018-12-18T10:53:27.682Z,50.53
2018-12-18T10:55:55.128Z,50.57
2018-12-18T10:58:24.176Z,51.63
2018-12-18T11:00:58.141Z,54.40
2018-12-18T11:03:25.583Z,50.90
2018-12-18T11:05:53.296Z,54.90
2018-12-18T11:08:20.741Z,46.40
2018-12-18T11:10:48.189Z,50.50
2018-12-18T11:13:17.096Z,47.93
2018-12-18T11:15:45.150Z,56.67
2018-12-18T11:18:12.637Z,50.23
2018-12-18T11:20:40.326Z,47.00
2018-12-18T11:23:07.822Z,44.07
2018-12-18T11:25:35.290Z,47.17
2018-12-18T11:28:02.870Z,52.67
2018-12-18T11:30:30.416Z,53.57
2018-12-18T11:32:58.113Z,54.17
2018-12-18T11:35:25.939Z,46.37
2018-12-18T11:37:53.389Z,50.20
2018-12-18T11:40:21.285Z,54.90
2018-12-18T11:42:48.739Z,46.63
2018-12-18T11:45:16.582Z,61.97
2018-12-18T11:47:44.038Z,53.07
2018-12-18T11:50:11.779Z,56.73
2018-12-18T11:52:39.389Z,54.50
2018-12-18T11:55:06.905Z,49.00
2018-12-18T11:57:34.373Z,51.83
2018-12-18T12:00:01.823Z,55.43
2018-12-18T12:02:29.302Z,48.03
2018-12-18T12:04:56.860Z,54.17
2018-12-18T12:07:24.725Z,45.87
2018-12-18T12:09:52.474Z,38.27
2018-12-18T12:12:19.932Z,35.70
2018-12-18T12:14:47.625Z,37.67
2018-12-18T12:17:15.319Z,40.70
2018-12-18T12:19:42.937Z,37.93
2018-12-18T12:22:10.381Z,43.93
2018-12-18T12:24:37.849Z,46.13
2018-12-18T12:27:10.880Z,41.63
2018-12-18T12:29:38.325Z,47.97
2018-12-18T12:32:06.275Z,42.23
2018-12-18T12:34:33.877Z,42.57
2018-12-18T12:37:01.322Z,52.83
2018-12-18T12:39:28.766Z,38.07
2018-12-18T12:41:56.498Z,36.97
2018-12-18T12:44:23.955Z,47.57
2018-12-18T12:46:51.403Z,49.40
2018-12-18T12:49:18.870Z,38.57
2018-12-18T12:51:46.541Z,43.70
2018-12-18T12:54:13.981Z,41.73
2018-12-18T12:56:41.430Z,41.40
2018-12-18T12:59:09.029Z,39.97
2018-12-18T13:01:41.971Z,47.33
2018-12-18T13:04:06.236Z,42.17
2018-12-18T13:06:36.569Z,50.20
2018-12-18T13:09:05.881Z,43.13
2018-12-18T13:11:33.333Z,45.07
2018-12-18T13:14:00.802Z,37.20
2018-12-18T13:16:28.245Z,45.43
2018-12-18T13:18:55.938Z,39.67
2018-12-18T13:21:23.483Z,40.67
2018-12-18T13:23:51.368Z,39.67
2018-12-18T13:26:18.819Z,33.37
2018-12-18T13:28:46.321Z,35.40
2018-12-18T13:31:13.815Z,32.70
2018-12-18T13:33:41.489Z,34.27
2018-12-18T13:36:09.340Z,33.43
2018-12-18T13:38:36.786Z,26.87
2018-12-18T13:41:04.468Z,28.90
2018-12-18T13:43:31.961Z,29.13
2018-12-18T13:45:59.417Z,25.13
2018-12-18T13:48:27.087Z,28.13
2018-12-18T13:50:54.817Z,23.30
2018-12-18T13:53:22.414Z,20.67
2018-12-18T13:55:49.865Z,22.20
2018-12-18T13:58:17.310Z,23.80
2018-12-18T14:00:45.023Z,23.23
2018-12-18T14:03:12.514Z,28.50
2018-12-18T14:08:09.758Z,25.90
2018-12-18T14:10:37.207Z,26.67
2018-12-18T14:13:04.725Z,28.27
2018-12-18T14:15:32.186Z,27.53
2018-12-18T14:17:59.687Z,25.20
2018-12-18T14:20:27.403Z,28.33
2018-12-18T14:22:54.853Z,25.37
2018-12-18T14:25:22.286Z,21.80
2018-12-18T14:27:49.775Z,23.73
2018-12-18T14:30:17.225Z,20.33
2018-12-18T14:32:45.161Z,22.97
2018-12-18T14:35:13.109Z,23.17
2018-12-18T14:37:40.602Z,25.33
2018-12-18T14:40:08.046Z,23.83
2018-12-18T14:42:35.552Z,23.80
2018-12-18T14:45:03.710Z,25.53
2018-12-18T14:47:31.173Z,23.43
2018-12-18T14:49:58.943Z,23.00
2018-12-18T14:52:26.395Z,21.90
2018-12-18T14:54:53.897Z,21.40
2018-12-18T14:57:21.346Z,19.87
2018-12-18T14:59:48.817Z,20.30
2018-12-18T15:02:16.285Z,22.07
2018-12-18T15:04:44.690Z,21.53
2018-12-18T15:07:12.477Z,20.47
2018-12-18T15:09:39.926Z,21.63
2018-12-18T15:12:07.413Z,22.87
2018-12-18T15:14:34.865Z,21.23
2018-12-18T15:17:02.364Z,22.13
2018-12-18T15:19:30.046Z,22.00
2018-12-18T15:21:57.557Z,22.43
2018-12-18T15:24:25.001Z,23.37
2018-12-18T15:26:52.457Z,21.23
2018-12-18T15:29:19.930Z,20.20
2018-12-18T15:31:47.681Z,21.93
2018-12-18T15:34:15.123Z,25.23
2018-12-18T15:36:43.202Z,21.97
2018-12-18T15:39:10.649Z,20.53
2018-12-18T15:41:38.265Z,21.23
2018-12-18T15:44:06.080Z,22.73
2018-12-18T15:46:33.579Z,23.30
2018-12-18T15:49:01.021Z,21.07
2018-12-18T15:51:28.663Z,21.03
2018-12-18T15:53:56.121Z,21.10
2018-12-18T15:56:23.570Z,21.80
2018-12-18T15:58:51.030Z,21.63
2018-12-18T16:01:19.057Z,20.13
2018-12-18T16:03:46.515Z,24.77
2018-12-18T16:06:14.397Z,22.27
2018-12-18T16:08:41.948Z,21.40
2018-12-18T16:11:09.438Z,19.77
2018-12-18T16:13:37.216Z,19.97
2018-12-18T16:16:04.697Z,20.63
2018-12-18T16:18:33.802Z,21.03
2018-12-18T16:21:01.618Z,20.70
2018-12-18T16:23:29.137Z,23.03
2018-12-18T16:25:56.585Z,20.53
2018-12-18T16:28:24.245Z,21.17
2018-12-18T16:30:51.737Z,20.30
2018-12-18T16:33:19.490Z,21.07
2018-12-18T16:35:47.496Z,22.67
2018-12-18T16:38:15.003Z,21.17
2018-12-18T16:40:43.728Z,20.20
2018-12-18T16:43:11.845Z,18.57
2018-12-18T16:45:39.309Z,20.40
2018-12-18T16:48:06.764Z,18.77
2018-12-18T16:50:34.882Z,19.27
2018-12-18T16:53:02.479Z,20.40
2018-12-18T16:55:29.931Z,18.63
2018-12-18T16:57:57.435Z,20.83
2018-12-18T17:00:24.929Z,21.60
2018-12-18T17:02:52.702Z,20.80
2018-12-18T17:05:20.463Z,22.43
2018-12-18T17:07:47.894Z,21.97
2018-12-18T17:10:15.348Z,21.23
2018-12-18T17:12:44.745Z,20.83
2018-12-18T17:15:12.517Z,18.87
2018-12-18T17:17:39.966Z,22.57
2018-12-18T17:20:07.687Z,22.27
2018-12-18T17:22:35.146Z,22.30
2018-12-18T17:25:02.725Z,22.07
2018-12-18T17:27:30.648Z,21.40
2018-12-18T17:29:58.390Z,19.77
2018-12-18T17:32:26.349Z,22.10
2018-12-18T17:34:53.964Z,22.17
2018-12-18T17:37:21.431Z,20.90
2018-12-18T17:39:48.898Z,23.40
2018-12-18T17:42:16.369Z,22.67
2018-12-18T17:44:43.826Z,20.87
2018-12-18T17:47:12.292Z,24.33
2018-12-18T17:49:40.182Z,23.27
2018-12-18T17:52:07.638Z,22.00
2018-12-18T17:54:35.097Z,20.80
2018-12-18T17:57:02.559Z,23.63
2018-12-18T17:59:30.012Z,24.00
2018-12-18T18:01:57.909Z,20.50
2018-12-18T18:04:25.494Z,23.40
2018-12-18T18:06:53.205Z,22.43
2018-12-18T18:09:20.653Z,20.07
2018-12-18T18:11:48.097Z,20.67
2018-12-18T18:14:15.617Z,20.40
2018-12-18T18:16:43.074Z,20.07
2018-12-18T18:19:10.882Z,21.33
2018-12-18T18:21:38.393Z,23.03
2018-12-18T18:24:05.854Z,19.43
2018-12-18T18:26:34.162Z,21.80
2018-12-18T18:29:01.893Z,20.83
2018-12-18T18:31:29.625Z,22.90
2018-12-18T18:33:57.366Z,19.17
2018-12-18T18:36:25.037Z,21.57
2018-12-18T18:38:52.488Z,22.47
2018-12-18T18:41:20.200Z,22.53
2018-12-18T18:43:47.657Z,23.20
2018-12-18T18:46:15.145Z,26.37
2018-12-18T18:48:42.614Z,23.33
2018-12-18T18:51:10.292Z,22.43
2018-12-18T18:53:37.746Z,22.43
2018-12-18T18:56:05.221Z,22.13
2018-12-18T18:58:32.701Z,21.47
2018-12-18T19:01:00.182Z,21.37
2018-12-18T19:03:27.637Z,19.90
2018-12-18T19:05:55.503Z,19.33
2018-12-18T19:08:22.993Z,19.20
2018-12-18T19:10:50.438Z,19.93
2018-12-18T19:13:17.901Z,18.90
2018-12-18T19:15:45.892Z,20.10
2018-12-18T19:18:13.354Z,19.87
2018-12-18T19:20:40.908Z,21.07
2018-12-18T19:23:08.345Z,19.07
2018-12-18T19:25:35.821Z,18.07
2018-12-18T19:28:03.485Z,17.27
2018-12-18T19:30:31.369Z,18.67
2018-12-18T19:32:58.994Z,17.80
2018-12-18T19:35:26.743Z,20.43
2018-12-18T19:37:54.526Z,19.93
2018-12-18T19:40:22.017Z,19.07
2018-12-18T19:42:49.489Z,22.20
2018-12-18T19:45:17.284Z,18.27
2018-12-18T19:47:44.744Z,19.33
2018-12-18T19:50:12.547Z,20.87
2018-12-18T19:52:40.008Z,22.27
2018-12-18T19:55:07.530Z,20.63
2018-12-18T19:57:34.986Z,21.00
2018-12-18T20:00:03.613Z,20.37
2018-12-18T20:02:31.406Z,22.13
2018-12-18T20:04:59.392Z,21.77
2018-12-18T20:07:27.213Z,21.60
2018-12-18T20:09:54.785Z,24.50
2018-12-18T20:12:22.226Z,22.90
2018-12-18T20:14:49.956Z,21.03
2018-12-18T20:17:17.555Z,20.10
2018-12-18T20:22:16.506Z,22.50
2018-12-18T20:24:44.236Z,21.60
2018-12-18T20:27:11.701Z,23.83
2018-12-18T20:29:39.940Z,22.07
2018-12-18T20:32:07.682Z,23.50
2018-12-18T20:34:35.789Z,24.60
2018-12-18T20:37:03.353Z,22.50
2018-12-18T20:39:32.039Z,23.43
2018-12-18T20:41:59.513Z,26.73
2018-12-18T20:44:27.048Z,27.23
2018-12-18T20:46:54.519Z,25.33
2018-12-18T20:49:22.033Z,25.23
2018-12-18T20:51:49.792Z,26.73
2018-12-18T20:54:17.298Z,27.00
2018-12-18T20:56:44.817Z,24.33
2018-12-18T20:59:12.271Z,22.17
2018-12-18T21:01:40.211Z,22.50
2018-12-18T21:04:08.174Z,23.53
2018-12-18T21:06:35.939Z,22.30
2018-12-18T21:09:06.002Z,22.33
2018-12-18T21:11:33.445Z,28.30
2018-12-18T21:14:01.069Z,22.90
2018-12-18T21:16:28.529Z,24.67
2018-12-18T21:18:56.423Z,24.13
2018-12-18T21:21:24.057Z,26.63
2018-12-18T21:23:51.518Z,22.50
2018-12-18T21:26:18.948Z,21.60
2018-12-18T21:28:46.698Z,23.77
2018-12-18T21:31:14.481Z,24.00
2018-12-18T21:33:42.284Z,24.50
2018-12-18T21:36:10.141Z,25.27
2018-12-18T21:38:37.640Z,28.67
2018-12-18T21:41:05.076Z,26.17
2018-12-18T21:43:32.538Z,23.73
2018-12-18T21:45:59.999Z,25.63
2018-12-18T21:48:27.540Z,21.37
2018-12-18T21:50:55.281Z,22.27
2018-12-18T21:53:22.723Z,22.93
2018-12-18T21:55:50.196Z,20.57
2018-12-18T21:58:17.645Z,22.30
2018-12-18T22:00:45.184Z,21.47
2018-12-18T22:03:12.729Z,23.57
2018-12-18T22:05:40.658Z,21.30
2018-12-18T22:08:08.097Z,24.27
2018-12-18T22:10:35.556Z,21.87
2018-12-18T22:13:03.031Z,22.37
2018-12-18T22:15:30.464Z,23.43
2018-12-18T22:17:57.918Z,23.83
2018-12-18T22:20:25.744Z,24.20
2018-12-18T22:22:53.197Z,22.00
2018-12-18T22:25:20.650Z,23.13
2018-12-18T22:27:48.452Z,20.67
2018-12-18T22:30:15.990Z,24.83
2018-12-18T22:32:43.876Z,23.20
2018-12-18T22:35:11.532Z,22.60
2018-12-18T22:37:38.994Z,27.60
2018-12-18T22:40:07.008Z,24.90
2018-12-18T22:42:34.729Z,23.93
2018-12-18T22:45:02.213Z,31.40
2018-12-18T22:47:33.832Z,28.63
2018-12-18T22:50:02.896Z,23.10
2018-12-18T22:52:33.491Z,23.47
2018-12-18T22:55:02.558Z,23.53
2018-12-18T22:57:30.227Z,22.60
2018-12-18T22:59:57.690Z,23.83
2018-12-18T23:02:25.522Z,24.97
2018-12-18T23:04:54.014Z,28.33
2018-12-18T23:07:22.185Z,28.47
2018-12-18T23:09:49.912Z,28.97
2018-12-18T23:12:17.431Z,22.33
2018-12-18T23:14:44.896Z,22.00
2018-12-18T23:17:12.385Z,25.50
2018-12-18T23:19:40.062Z,24.20
2018-12-18T23:22:07.555Z,25.80
2018-12-18T23:24:35.002Z,25.83
2018-12-18T23:27:02.480Z,24.40
2018-12-18T23:29:30.182Z,25.83
2018-12-18T23:31:57.997Z,28.53
2018-12-18T23:34:25.534Z,30.30
2018-12-18T23:36:53.151Z,23.73
2018-12-18T23:39:20.805Z,25.47
2018-12-18T23:41:48.397Z,25.53
2018-12-18T23:44:16.033Z,27.47
2018-12-18T23:46:43.467Z,35.00
2018-12-18T23:49:10.918Z,27.93
2018-12-18T23:51:38.742Z,35.67
2018-12-18T23:54:06.221Z,30.90
2018-12-18T23:56:33.665Z,35.47
2018-12-18T23:59:01.403Z,28.63
